sensor_id;sensor_type;location;lat;lon;timestamp;pressure;altitude;pressure_sealevel;temperature;humidity
78843;BME280;70542;53.774;-0.352;2023-07-20T00:01:07;101670;;;17;47
78843;BME280;70542;53.774;-0.352;2023-07-20T00:06:45;101670;;;18;45
78843;BME280;70542;53.774;-0.352;2023-07-20T00:12:24;101660;;;17;46
78843;BME280;70542;53.774;-0.352;2023-07-20T00:18:03;101660;;;18;44
78843;BME280;70542;53.774;-0.352;2023-07-20T00:23:41;101660;;;18;44
78843;BME280;70542;53.774;-0.352;2023-07-20T00:29:20;101670;;;18;44
78843;BME280;70542;53.774;-0.352;2023-07-20T00:34:59;101670;;;18;44
78843;BME280;70542;53.774;-0.352;2023-07-20T00:40:41;101670;;;17;46
78843;BME280;70542;53.774;-0.352;2023-07-20T00:46:22;101660;;;18;45
78843;BME280;70542;53.774;-0.352;2023-07-20T00:52:03;101650;;;18;45
78843;BME280;70542;53.774;-0.352;2023-07-20T00:57:44;101660;;;17;44
78843;BME280;70542;53.774;-0.352;2023-07-20T01:03:22;101660;;;17;45
78843;BME280;70542;53.774;-0.352;2023-07-20T01:09:08;101660;;;17;45
78843;BME280;70542;53.774;-0.352;2023-07-20T01:14:50;101650;;;17;45
78843;BME280;70542;53.774;-0.352;2023-07-20T01:20:33;101640;;;18;43
78843;BME280;70542;53.774;-0.352;2023-07-20T01:26:25;101640;;;16;47
78843;BME280;70542;53.774;-0.352;2023-07-20T01:32:06;101640;;;17;44
78843;BME280;70542;53.774;-0.352;2023-07-20T01:37:47;101640;;;17;44
78843;BME280;70542;53.774;-0.352;2023-07-20T01:43:26;101640;;;17;44
78843;BME280;70542;53.774;-0.352;2023-07-20T01:49:09;101630;;;17;44
78843;BME280;70542;53.774;-0.352;2023-07-20T01:54:47;101630;;;17;47
78843;BME280;70542;53.774;-0.352;2023-07-20T02:00:26;101630;;;13;52
78843;BME280;70542;53.774;-0.352;2023-07-20T02:06:05;101620;;;13;54
78843;BME280;70542;53.774;-0.352;2023-07-20T02:11:51;101620;;;16;48
78843;BME280;70542;53.774;-0.352;2023-07-20T02:17:29;101610;;;17;45
78843;BME280;70542;53.774;-0.352;2023-07-20T02:23:12;101610;;;13;53
78843;BME280;70542;53.774;-0.352;2023-07-20T02:28:50;101610;;;12;55
78843;BME280;70542;53.774;-0.352;2023-07-20T02:34:34;101610;;;12;54
78843;BME280;70542;53.774;-0.352;2023-07-20T02:40:17;101600;;;16;46
78843;BME280;70542;53.774;-0.352;2023-07-20T02:45:55;101610;;;16;45
78843;BME280;70542;53.774;-0.352;2023-07-20T02:51:38;101610;;;12;56
78843;BME280;70542;53.774;-0.352;2023-07-20T02:57:20;101600;;;15;49
78843;BME280;70542;53.774;-0.352;2023-07-20T03:03:03;101600;;;16;46
78843;BME280;70542;53.774;-0.352;2023-07-20T03:08:42;101600;;;14;50
78843;BME280;70542;53.774;-0.352;2023-07-20T03:14:21;101600;;;13;51
78843;BME280;70542;53.774;-0.352;2023-07-20T03:20:00;101600;;;16;46
78843;BME280;70542;53.774;-0.352;2023-07-20T03:25:46;101600;;;16;46
78843;BME280;70542;53.774;-0.352;2023-07-20T03:31:28;101600;;;15;48
78843;BME280;70542;53.774;-0.352;2023-07-20T03:37:23;101590;;;16;46
78843;BME280;70542;53.774;-0.352;2023-07-20T03:43:02;101600;;;15;47
78843;BME280;70542;53.774;-0.352;2023-07-20T03:48:40;101590;;;15;48
78843;BME280;70542;53.774;-0.352;2023-07-20T03:54:19;101580;;;15;48
78843;BME280;70542;53.774;-0.352;2023-07-20T04:00:02;101590;;;15;48
78843;BME280;70542;53.774;-0.352;2023-07-20T04:05:40;101590;;;12;56
78843;BME280;70542;53.774;-0.352;2023-07-20T04:11:19;101580;;;16;46
78843;BME280;70542;53.774;-0.352;2023-07-20T04:16:57;101580;;;15;47
78843;BME280;70542;53.774;-0.352;2023-07-20T04:22:36;101580;;;15;46
78843;BME280;70542;53.774;-0.352;2023-07-20T04:28:15;101570;;;15;47
78843;BME280;70542;53.774;-0.352;2023-07-20T04:33:53;101570;;;16;45
78843;BME280;70542;53.774;-0.352;2023-07-20T04:39:32;101580;;;16;46
78843;BME280;70542;53.774;-0.352;2023-07-20T04:45:11;101570;;;13;52
78843;BME280;70542;53.774;-0.352;2023-07-20T04:50:49;101560;;;15;48
78843;BME280;70542;53.774;-0.352;2023-07-20T04:56:28;101560;;;16;46
78843;BME280;70542;53.774;-0.352;2023-07-20T05:02:07;101570;;;16;46
78843;BME280;70542;53.774;-0.352;2023-07-20T05:07:49;101580;;;15;47
78843;BME280;70542;53.774;-0.352;2023-07-20T05:13:28;101580;;;16;46
78843;BME280;70542;53.774;-0.352;2023-07-20T05:19:07;101580;;;16;48
78843;BME280;70542;53.774;-0.352;2023-07-20T05:24:51;101580;;;15;49
78843;BME280;70542;53.774;-0.352;2023-07-20T05:30:29;101580;;;16;47
78843;BME280;70542;53.774;-0.352;2023-07-20T05:36:08;101570;;;16;45
78843;BME280;70542;53.774;-0.352;2023-07-20T05:41:47;101560;;;16;47
78843;BME280;70542;53.774;-0.352;2023-07-20T05:47:30;101560;;;17;45
78843;BME280;70542;53.774;-0.352;2023-07-20T05:53:14;101570;;;17;46
78843;BME280;70542;53.774;-0.352;2023-07-20T05:58:53;101570;;;17;46
78843;BME280;70542;53.774;-0.352;2023-07-20T06:04:31;101570;;;18;44
78843;BME280;70542;53.774;-0.352;2023-07-20T06:10:10;101570;;;17;47
78843;BME280;70542;53.774;-0.352;2023-07-20T06:15:54;101560;;;18;44
78843;BME280;70542;53.774;-0.352;2023-07-20T06:21:33;101570;;;18;45
78843;BME280;70542;53.774;-0.352;2023-07-20T06:27:12;101570;;;18;44
78843;BME280;70542;53.774;-0.352;2023-07-20T06:32:51;101570;;;17;45
78843;BME280;70542;53.774;-0.352;2023-07-20T06:38:30;101570;;;19;43
78843;BME280;70542;53.774;-0.352;2023-07-20T06:44:08;101580;;;19;44
78843;BME280;70542;53.774;-0.352;2023-07-20T06:49:47;101580;;;18;43
78843;BME280;70542;53.774;-0.352;2023-07-20T06:55:26;101580;;;18;46
78843;BME280;70542;53.774;-0.352;2023-07-20T07:01:05;101580;;;17;47
78843;BME280;70542;53.774;-0.352;2023-07-20T07:06:44;101580;;;18;44
78843;BME280;70542;53.774;-0.352;2023-07-20T07:12:22;101580;;;19;44
78843;BME280;70542;53.774;-0.352;2023-07-20T07:18:01;101580;;;19;45
78843;BME280;70542;53.774;-0.352;2023-07-20T07:23:39;101580;;;18;46
78843;BME280;70542;53.774;-0.352;2023-07-20T07:29:18;101580;;;17;47
78843;BME280;70542;53.774;-0.352;2023-07-20T07:34:56;101580;;;18;46
78843;BME280;70542;53.774;-0.352;2023-07-20T07:40:39;101580;;;18;45
78843;BME280;70542;53.774;-0.352;2023-07-20T07:46:19;101580;;;17;47
78843;BME280;70542;53.774;-0.352;2023-07-20T07:51:58;101580;;;17;48
78843;BME280;70542;53.774;-0.352;2023-07-20T07:57:37;101580;;;16;50
78843;BME280;70542;53.774;-0.352;2023-07-20T08:03:16;101580;;;17;47
78843;BME280;70542;53.774;-0.352;2023-07-20T08:08:58;101580;;;16;48
78843;BME280;70542;53.774;-0.352;2023-07-20T08:14:42;101580;;;16;47
78843;BME280;70542;53.774;-0.352;2023-07-20T08:20:28;101590;;;17;46
78843;BME280;70542;53.774;-0.352;2023-07-20T08:26:07;101590;;;15;49
78843;BME280;70542;53.774;-0.352;2023-07-20T08:31:45;101590;;;16;49
78843;BME280;70542;53.774;-0.352;2023-07-20T08:37:24;101590;;;17;45
78843;BME280;70542;53.774;-0.352;2023-07-20T08:43:09;101590;;;16;44
78843;BME280;70542;53.774;-0.352;2023-07-20T08:48:49;101590;;;19;40
78843;BME280;70542;53.774;-0.352;2023-07-20T08:54:34;101590;;;19;41
78843;BME280;70542;53.774;-0.352;2023-07-20T09:00:25;101590;;;19;41
78843;BME280;70542;53.774;-0.352;2023-07-20T09:06:05;101580;;;19;40
78843;BME280;70542;53.774;-0.352;2023-07-20T09:11:47;101580;;;19;42
78843;BME280;70542;53.774;-0.352;2023-07-20T09:17:26;101580;;;18;43
78843;BME280;70542;53.774;-0.352;2023-07-20T09:23:17;101590;;;17;46
78843;BME280;70542;53.774;-0.352;2023-07-20T09:28:55;101590;;;19;42
78843;BME280;70542;53.774;-0.352;2023-07-20T09:34:34;101590;;;18;43
78843;BME280;70542;53.774;-0.352;2023-07-20T09:40:15;101600;;;18;44
78843;BME280;70542;53.774;-0.352;2023-07-20T09:45:57;101600;;;17;47
78843;BME280;70542;53.774;-0.352;2023-07-20T09:51:38;101600;;;18;47
78843;BME280;70542;53.774;-0.352;2023-07-20T09:57:17;101590;;;18;48
78843;BME280;70542;53.774;-0.352;2023-07-20T10:03:03;101580;;;18;46
78843;BME280;70542;53.774;-0.352;2023-07-20T10:08:42;101560;;;19;41
78843;BME280;70542;53.774;-0.352;2023-07-20T10:14:25;101570;;;20;37
78843;BME280;70542;53.774;-0.352;2023-07-20T10:20:10;101560;;;18;41
78843;BME280;70542;53.774;-0.352;2023-07-20T10:25:54;101570;;;17;43
78843;BME280;70542;53.774;-0.352;2023-07-20T10:31:47;101560;;;18;38
78843;BME280;70542;53.774;-0.352;2023-07-20T10:37:46;101560;;;19;40
78843;BME280;70542;53.774;-0.352;2023-07-20T10:43:34;101560;;;19;41
78843;BME280;70542;53.774;-0.352;2023-07-20T10:49:15;101560;;;20;36
78843;BME280;70542;53.774;-0.352;2023-07-20T10:54:54;101550;;;20;36
78843;BME280;70542;53.774;-0.352;2023-07-20T11:00:33;101540;;;20;35
78843;BME280;70542;53.774;-0.352;2023-07-20T11:12:09;101540;;;20;36
78843;BME280;70542;53.774;-0.352;2023-07-20T11:17:48;101540;;;20;38
78843;BME280;70542;53.774;-0.352;2023-07-20T11:23:31;101530;;;20;35
78843;BME280;70542;53.774;-0.352;2023-07-20T11:29:10;101530;;;21;34
78843;BME280;70542;53.774;-0.352;2023-07-20T11:34:49;101530;;;20;35
78843;BME280;70542;53.774;-0.352;2023-07-20T11:40:28;101530;;;21;32
78843;BME280;70542;53.774;-0.352;2023-07-20T11:46:07;101520;;;21;34
78843;BME280;70542;53.774;-0.352;2023-07-20T11:51:47;101510;;;21;34
78843;BME280;70542;53.774;-0.352;2023-07-20T11:57:25;101510;;;22;34
78843;BME280;70542;53.774;-0.352;2023-07-20T12:03:05;101500;;;22;32
78843;BME280;70542;53.774;-0.352;2023-07-20T12:08:44;101490;;;22;33
78843;BME280;70542;53.774;-0.352;2023-07-20T12:14:25;101490;;;20;36
78843;BME280;70542;53.774;-0.352;2023-07-20T12:20:05;101480;;;22;33
78843;BME280;70542;53.774;-0.352;2023-07-20T12:25:46;101480;;;22;31
78843;BME280;70542;53.774;-0.352;2023-07-20T12:31:26;101470;;;24;27
78843;BME280;70542;53.774;-0.352;2023-07-20T12:37:06;101480;;;24;28
78843;BME280;70542;53.774;-0.352;2023-07-20T12:42:44;101480;;;22;30
78843;BME280;70542;53.774;-0.352;2023-07-20T12:48:23;101480;;;22;28
78843;BME280;70542;53.774;-0.352;2023-07-20T12:54:03;101470;;;23;26
78843;BME280;70542;53.774;-0.352;2023-07-20T12:59:42;101470;;;24;25
78843;BME280;70542;53.774;-0.352;2023-07-20T13:05:21;101470;;;21;29
78843;BME280;70542;53.774;-0.352;2023-07-20T13:10:59;101460;;;20;28
78843;BME280;70542;53.774;-0.352;2023-07-20T13:16:38;101460;;;21;28
78843;BME280;70542;53.774;-0.352;2023-07-20T13:22:16;101460;;;22;28
78843;BME280;70542;53.774;-0.352;2023-07-20T13:27:55;101460;;;22;29
78843;BME280;70542;53.774;-0.352;2023-07-20T13:33:34;101460;;;21;28
78843;BME280;70542;53.774;-0.352;2023-07-20T13:39:12;101450;;;21;29
78843;BME280;70542;53.774;-0.352;2023-07-20T13:44:51;101450;;;21;34
78843;BME280;70542;53.774;-0.352;2023-07-20T13:50:30;101450;;;22;31
78843;BME280;70542;53.774;-0.352;2023-07-20T13:56:08;101450;;;22;31
78843;BME280;70542;53.774;-0.352;2023-07-20T14:01:47;101450;;;22;29
78843;BME280;70542;53.774;-0.352;2023-07-20T14:07:26;101460;;;22;30
78843;BME280;70542;53.774;-0.352;2023-07-20T14:13:05;101460;;;21;34
78843;BME280;70542;53.774;-0.352;2023-07-20T14:18:44;101460;;;19;38
78843;BME280;70542;53.774;-0.352;2023-07-20T14:24:23;101450;;;19;39
78843;BME280;70542;53.774;-0.352;2023-07-20T14:30:02;101440;;;20;37
78843;BME280;70542;53.774;-0.352;2023-07-20T14:35:42;101440;;;20;35
78843;BME280;70542;53.774;-0.352;2023-07-20T14:41:21;101440;;;21;33
78843;BME280;70542;53.774;-0.352;2023-07-20T14:47:00;101440;;;20;36
78843;BME280;70542;53.774;-0.352;2023-07-20T14:52:40;101440;;;20;34
78843;BME280;70542;53.774;-0.352;2023-07-20T14:58:19;101440;;;23;33
78843;BME280;70542;53.774;-0.352;2023-07-20T15:03:58;101430;;;21;35
78843;BME280;70542;53.774;-0.352;2023-07-20T15:09:36;101430;;;22;33
78843;BME280;70542;53.774;-0.352;2023-07-20T15:15:15;101420;;;21;33
78843;BME280;70542;53.774;-0.352;2023-07-20T15:21:00;101410;;;22;32
78843;BME280;70542;53.774;-0.352;2023-07-20T15:26:38;101400;;;24;29
78843;BME280;70542;53.774;-0.352;2023-07-20T15:32:23;101390;;;21;36
78843;BME280;70542;53.774;-0.352;2023-07-20T15:38:03;101380;;;21;34
78843;BME280;70542;53.774;-0.352;2023-07-20T15:43:42;101390;;;19;39
78843;BME280;70542;53.774;-0.352;2023-07-20T15:49:20;101380;;;23;32
78843;BME280;70542;53.774;-0.352;2023-07-20T15:55:00;101380;;;23;32
78843;BME280;70542;53.774;-0.352;2023-07-20T16:00:39;101370;;;23;31
78843;BME280;70542;53.774;-0.352;2023-07-20T16:06:19;101370;;;22;35
78843;BME280;70542;53.774;-0.352;2023-07-20T16:11:57;101360;;;20;38
78843;BME280;70542;53.774;-0.352;2023-07-20T16:17:46;101360;;;20;38
78843;BME280;70542;53.774;-0.352;2023-07-20T16:23:25;101360;;;21;33
78843;BME280;70542;53.774;-0.352;2023-07-20T16:29:04;101360;;;21;31
78843;BME280;70542;53.774;-0.352;2023-07-20T16:34:43;101350;;;21;31
78843;BME280;70542;53.774;-0.352;2023-07-20T16:40:21;101350;;;22;29
78843;BME280;70542;53.774;-0.352;2023-07-20T16:46:00;101350;;;21;28
78843;BME280;70542;53.774;-0.352;2023-07-20T16:51:44;101340;;;22;28
78843;BME280;70542;53.774;-0.352;2023-07-20T16:57:24;101330;;;23;26
78843;BME280;70542;53.774;-0.352;2023-07-20T17:03:03;101330;;;22;27
78843;BME280;70542;53.774;-0.352;2023-07-20T17:08:42;101330;;;23;25
78843;BME280;70542;53.774;-0.352;2023-07-20T17:14:21;101320;;;22;26
78843;BME280;70542;53.774;-0.352;2023-07-20T17:20:00;101330;;;22;26
78843;BME280;70542;53.774;-0.352;2023-07-20T17:25:44;101320;;;21;28
78843;BME280;70542;53.774;-0.352;2023-07-20T17:31:24;101330;;;21;28
78843;BME280;70542;53.774;-0.352;2023-07-20T17:37:04;101330;;;19;35
78843;BME280;70542;53.774;-0.352;2023-07-20T17:42:42;101330;;;18;37
78843;BME280;70542;53.774;-0.352;2023-07-20T17:48:21;101330;;;18;39
78843;BME280;70542;53.774;-0.352;2023-07-20T17:54:00;101340;;;17;42
78843;BME280;70542;53.774;-0.352;2023-07-20T17:59:39;101360;;;16;48
78843;BME280;70542;53.774;-0.352;2023-07-20T18:05:18;101360;;;17;45
78843;BME280;70542;53.774;-0.352;2023-07-20T18:11:02;101360;;;18;43
78843;BME280;70542;53.774;-0.352;2023-07-20T18:16:40;101360;;;18;42
78843;BME280;70542;53.774;-0.352;2023-07-20T18:22:19;101370;;;18;42
78843;BME280;70542;53.774;-0.352;2023-07-20T18:27:58;101380;;;17;44
78843;BME280;70542;53.774;-0.352;2023-07-20T18:33:36;101380;;;17;44
78843;BME280;70542;53.774;-0.352;2023-07-20T18:39:19;101380;;;17;44
78843;BME280;70542;53.774;-0.352;2023-07-20T18:44:57;101370;;;19;39
78843;BME280;70542;53.774;-0.352;2023-07-20T18:50:36;101370;;;19;38
78843;BME280;70542;53.774;-0.352;2023-07-20T18:56:15;101360;;;18;40
78843;BME280;70542;53.774;-0.352;2023-07-20T19:01:53;101360;;;19;38
78843;BME280;70542;53.774;-0.352;2023-07-20T19:07:32;101370;;;20;35
78843;BME280;70542;53.774;-0.352;2023-07-20T19:13:11;101370;;;18;40
78843;BME280;70542;53.774;-0.352;2023-07-20T19:18:49;101370;;;20;36
78843;BME280;70542;53.774;-0.352;2023-07-20T19:24:28;101380;;;20;37
78843;BME280;70542;53.774;-0.352;2023-07-20T19:30:08;101370;;;20;36
78843;BME280;70542;53.774;-0.352;2023-07-20T19:35:46;101380;;;19;40
78843;BME280;70542;53.774;-0.352;2023-07-20T19:41:25;101380;;;18;42
78843;BME280;70542;53.774;-0.352;2023-07-20T19:47:04;101380;;;19;39
78843;BME280;70542;53.774;-0.352;2023-07-20T19:52:43;101390;;;20;38
78843;BME280;70542;53.774;-0.352;2023-07-20T19:58:22;101390;;;20;38
78843;BME280;70542;53.774;-0.352;2023-07-20T20:04:00;101400;;;20;37
78843;BME280;70542;53.774;-0.352;2023-07-20T20:09:39;101400;;;17;41
78843;BME280;70542;53.774;-0.352;2023-07-20T20:15:18;101400;;;19;39
78843;BME280;70542;53.774;-0.352;2023-07-20T20:20:57;101400;;;19;40
78843;BME280;70542;53.774;-0.352;2023-07-20T20:26:35;101410;;;19;41
78843;BME280;70542;53.774;-0.352;2023-07-20T20:32:14;101410;;;18;43
78843;BME280;70542;53.774;-0.352;2023-07-20T20:37:53;101410;;;18;42
78843;BME280;70542;53.774;-0.352;2023-07-20T20:43:31;101410;;;16;47
78843;BME280;70542;53.774;-0.352;2023-07-20T20:49:10;101410;;;14;52
78843;BME280;70542;53.774;-0.352;2023-07-20T20:54:49;101410;;;14;52
78843;BME280;70542;53.774;-0.352;2023-07-20T21:00:28;101410;;;15;51
78843;BME280;70542;53.774;-0.352;2023-07-20T21:06:06;101400;;;16;48
78843;BME280;70542;53.774;-0.352;2023-07-20T21:11:45;101400;;;18;43
78843;BME280;70542;53.774;-0.352;2023-07-20T21:17:24;101390;;;18;43
78843;BME280;70542;53.774;-0.352;2023-07-20T21:23:02;101390;;;19;42
78843;BME280;70542;53.774;-0.352;2023-07-20T21:28:41;101390;;;17;47
78843;BME280;70542;53.774;-0.352;2023-07-20T21:34:20;101380;;;18;44
78843;BME280;70542;53.774;-0.352;2023-07-20T21:39:59;101380;;;17;46
78843;BME280;70542;53.774;-0.352;2023-07-20T21:45:37;101380;;;19;42
78843;BME280;70542;53.774;-0.352;2023-07-20T21:51:16;101380;;;18;44
78843;BME280;70542;53.774;-0.352;2023-07-20T21:56:55;101380;;;18;45
78843;BME280;70542;53.774;-0.352;2023-07-20T22:02:33;101370;;;18;44
78843;BME280;70542;53.774;-0.352;2023-07-20T22:08:12;101380;;;17;47
78843;BME280;70542;53.774;-0.352;2023-07-20T22:13:51;101370;;;19;43
78843;BME280;70542;53.774;-0.352;2023-07-20T22:19:30;101370;;;19;43
78843;BME280;70542;53.774;-0.352;2023-07-20T22:25:08;101360;;;18;44
78843;BME280;70542;53.774;-0.352;2023-07-20T22:30:47;101360;;;17;44
78843;BME280;70542;53.774;-0.352;2023-07-20T22:36:26;101360;;;18;42
78843;BME280;70542;53.774;-0.352;2023-07-20T22:42:05;101360;;;17;45
78843;BME280;70542;53.774;-0.352;2023-07-20T22:47:44;101360;;;17;46
78843;BME280;70542;53.774;-0.352;2023-07-20T22:53:23;101360;;;16;47
78843;BME280;70542;53.774;-0.352;2023-07-20T23:04:50;101350;;;18;45
78843;BME280;70542;53.774;-0.352;2023-07-20T23:10:28;101350;;;17;46
78843;BME280;70542;53.774;-0.352;2023-07-20T23:16:07;101340;;;18;43
78843;BME280;70542;53.774;-0.352;2023-07-20T23:21:46;101340;;;19;41
78843;BME280;70542;53.774;-0.352;2023-07-20T23:27:25;101340;;;18;41
78843;BME280;70542;53.774;-0.352;2023-07-20T23:33:04;101340;;;17;42
78843;BME280;70542;53.774;-0.352;2023-07-20T23:38:42;101350;;;16;45
78843;BME280;70542;53.774;-0.352;2023-07-20T23:44:21;101340;;;16;44
78843;BME280;70542;53.774;-0.352;2023-07-20T23:50:01;101340;;;16;42
78843;BME280;70542;53.774;-0.352;2023-07-20T23:55:39;101330;;;16;42
